Weather at Sourasky (Ichilov) Medical Center

Public forecast

Using degrees Celsius for public forecast. Weather courtesy of forecast.io.

Closest aviation weather report (METAR) to Sourasky (Ichilov) Medical Center

Closest report is Ben Gurion International Airport, 6.4 nm (11.9 km) SE.

2024/06/16 12:20 (retrieved 5 minutes ago)

LLBG 161220Z 30013KT CAVOK 32/19 Q1008 NOSIG

Closest aviation forecast (TAF) to Sourasky (Ichilov) Medical Center

Closest forecast is Ben Gurion International Airport, 6.4 nm (11.9 km) SE.

2024/06/16 12:06 (retrieved 19 minutes ago)

TAF TAF LLBG 161101Z 1612/1712 28010KT CAVOK BECMG 1616/1618 VRB04KT 9999 FEW018 PROB40 TEMPO 1621/1704 15004KT BKN015 BECMG 1707/1709 29010KT CAVOK TX34/1612Z TN21/1704Z